Tiempo atmosférico en la estación meteorológica de Teruel, Santa Eulalia del Campo, Teruel (1000 m.)



Fecha
DESCASC
Temp. máxima en grados centígrados (hora)
DESCASC
Temp. mínima en grados centígrados (hora)
DESCASC
Temp. media en grados centígrados
DESCASC
Racha de viento máxima en m/sg (hora)
DESCASC
Velocidad máxima media en intervalos de 10 minutos(hora)
DESCASC
Precipitaciones diarias en mm
DESCASC
Precipitaciones de 00:00 a 06:00 en mm
DESCASC
Precipitaciones de 06:00 a 12:00 en mm
DESCASC
Precipitaciones de 12:00 a 18:00 en mm
DESCASC
Precipitaciones de 18:00 a 24:00 en mm
DESCASC

Gráficas

Temp. máximas Temp. mínimas Temp. medias Precipitaciones Rachas de viento máximas Velocidades máximas media en intervalos de 10 minutos

Datos horarios

Fecha y hora oficial Temperatura (ºC) Velocidad del viento (km/h) Dirección del viento Racha (km/h) Dirección de racha Precipitación (mm) Presión (hPa) Tendencia (hPa) Humedad (%)
2020-04-07 23:00:00 9.6 11 Sur 23 Sur 0 -- -- 94
2020-04-07 22:00:00 10.1 11 Sur 25 Sur 0 -- -- 92
2020-04-07 21:00:00 10.5 11 Sur 31 Sur 0 -- -- 91
2020-04-07 20:00:00 11.6 13 Sur 27 Sudeste 0.4 -- -- 86
2020-04-07 19:00:00 13.2 13 Sur 35 Sur 0 -- -- 80
2020-04-07 18:00:00 13 15 Sur 29 Sur 0.2 -- -- 81
2020-04-07 17:00:00 12.6 15 Sur 36 Sur 3 -- -- 86
2020-04-07 16:00:00 14.9 26 Sur 41 Sur 0 -- -- 72
2020-04-07 15:00:00 14.2 22 Sur 39 Sur 0 -- -- 76
2020-04-07 14:00:00 15.7 19 Sur 34 Sur 0 -- -- 74
2020-04-07 13:00:00 15 17 Sur 27 Sur 0 -- -- 80
2020-04-07 12:00:00 12.8 13 Sur 22 Sur 0 -- -- 85
2020-04-07 11:00:00 9.9 12 Sur 22 Sur 0 -- -- 95
2020-04-07 10:00:00 9.8 11 Sur 21 Sur 0 -- -- 96
2020-04-07 09:00:00 8.7 9 Sur 16 Sur 1.2 -- -- 99
2020-04-07 08:00:00 8.5 5 Sudoeste 14 Sur 0.8 -- -- 98
2020-04-07 07:00:00 8.3 10 Sur 14 Sur 0 -- -- 98
2020-04-07 06:00:00 8.3 5 Sur 17 Sur 0 -- -- 99
2020-04-07 05:00:00 7.9 2 Sudeste 14 Sudoeste 0 -- -- 99
2020-04-07 04:00:00 8.3 9 Sudoeste 14 Sur 0 -- -- 98
2020-04-07 03:00:00 8.3 4 Sur 14 Sur 0 -- -- 98
2020-04-07 02:00:00 9 9 Sur 17 Sur 0 -- -- 97
2020-04-07 01:00:00 9.4 11 Sur 20 Sur 0.2 -- -- 97
2020-04-07 00:00:00 9.7 13 Sur 23 Sur 0.4 -- -- 97
2020-04-06 23:00:00 10.4 15 Sur 26 Sur 0 -- -- 95
2020-04-06 22:00:00 10.8 15 Sur 23 Sur 0.4 -- -- 94
2020-04-06 21:00:00 11.6 9 Sur 20 Sur 0.2 -- -- 89
2020-04-06 20:00:00 13.9 8 Sudeste 19 Oeste 0 -- -- 75
2020-04-06 19:00:00 15 6 Oeste 25 Oeste 0 -- -- 69
2020-04-06 18:00:00 15.7 20 Oeste 30 Sudoeste 0 -- -- 65
2020-04-06 17:00:00 16.9 13 Sudoeste 25 Sudoeste 0 -- -- 58
2020-04-06 16:00:00 16 14 Sudoeste 25 Sudoeste 0 -- -- 61
2020-04-06 15:00:00 16.3 11 Sudoeste 26 Oeste 0 -- -- 61
2020-04-06 14:00:00 16.7 13 Sur 23 Sudoeste 0 -- -- 55
2020-04-06 13:00:00 17.3 12 Sur 24 Sur 0 -- -- 52
2020-04-06 12:00:00 15.3 15 Sur 25 Sur 0 -- -- 67
2020-04-06 11:00:00 13.4 14 Sur 24 Sur 0 -- -- 75
2020-04-06 10:00:00 10.8 11 Sur 22 Sudoeste 0 -- -- 85
2020-04-06 09:00:00 7.4 10 Sur 17 Sur 0 -- -- 96
2020-04-06 08:00:00 7.1 8 Sudoeste 18 Sur 0 -- -- 96
2020-04-06 07:00:00 6.9 10 Sudoeste 14 Sudoeste 0 -- -- 97
2020-04-06 06:00:00 7 8 Sudoeste 13 Sudoeste 0 -- -- 97
2020-04-06 05:00:00 6.9 5 Sur 14 Sudoeste 0 -- -- 97
2020-04-06 04:00:00 7.3 6 Sur 19 Sur 0 -- -- 95
2020-04-06 03:00:00 7.3 10 Sur 18 Sur 0 -- -- 95
2020-04-06 02:00:00 7.3 13 Sudoeste 21 Sur 0 -- -- 94
2020-04-06 01:00:00 7.5 10 Sur 18 Sur 0 -- -- 93
2020-04-06 00:00:00 7 7 Sur 18 Sur 0 -- -- 93
2020-04-05 23:00:00 8 10 Sur 21 Sur 0 -- -- 89
2020-04-05 22:00:00 9 12 Sur 30 Sur 0 -- -- 84
2020-04-05 21:00:00 11.1 20 Sur 33 Sur 0 -- -- 74
2020-04-05 20:00:00 13.6 20 Sur 35 Sur 0 -- -- 65
2020-04-05 19:00:00 14.9 18 Sur 31 Sur 0 -- -- 58
2020-04-05 18:00:00 15.7 15 Sur 39 Este 0 -- -- 55
2020-04-05 17:00:00 15.3 15 Sudeste 31 Sur 0 -- -- 55
2020-04-05 16:00:00 14.9 13 Sur 30 Sur 0 -- -- 56
2020-04-05 15:00:00 14 14 Sur 29 Sur 0 -- -- 59
2020-04-05 14:00:00 13.9 20 Sur 31 Sur 0 -- -- 59
2020-04-05 13:00:00 12.3 17 Sur 29 Sur 0 -- -- 62
2020-04-05 12:00:00 11.2 14 Sur 23 Sur 0 -- -- 63
2020-04-05 11:00:00 8.7 17 Sur 24 Sur 0 -- -- 70
2020-04-05 10:00:00 5.9 13 Sur 19 Sur 0 -- -- 77
2020-04-05 09:00:00 4.7 8 Sur 15 Sur 0 -- -- 86
2020-04-05 08:00:00 4.3 6 Sur 15 Sur 0 -- -- 86
2020-04-05 07:00:00 3.7 9 Sur 16 Sur 0 -- -- 92
2020-04-05 06:00:00 3.6 8 Sudoeste 12 Sudoeste 0 -- -- 92
2020-04-05 05:00:00 3.2 8 Sur 14 Sur 0 -- -- 93
2020-04-05 04:00:00 3.5 8 Sur 21 Sur 0 -- -- 92
2020-04-05 03:00:00 4.4 13 Sur 22 Sur 0 -- -- 88
2020-04-05 02:00:00 4.8 15 Sur 23 Sur 0 -- -- 86
2020-04-05 01:00:00 5.1 10 Sur 24 Sur 0 -- -- 86
2020-04-05 00:00:00 5.6 11 Sur 19 Sur 0 -- -- 87
2020-04-04 23:00:00 6.1 10 Sur 20 Sur 0 -- -- 87
2020-04-04 22:00:00 7.4 12 Sur 26 Sur 0 -- -- 79
2020-04-04 21:00:00 8.7 15 Sur 24 Sudoeste 0 -- -- 70
2020-04-04 20:00:00 10.6 15 Sur 30 Sur 0 -- -- 61
2020-04-04 19:00:00 13.7 20 Sur 34 Sudoeste 0 -- -- 47
2020-04-04 18:00:00 15 20 Sudoeste 33 Sur 0 -- -- 45
2020-04-04 17:00:00 15.6 19 Sudoeste 32 Sudoeste 0 -- -- 43
2020-04-04 16:00:00 15.6 16 Sur 36 Sur 0 -- -- 50
2020-04-04 15:00:00 14.9 15 Sur 30 Sur 0 -- -- 50
2020-04-04 14:00:00 13.4 18 Sur 30 Sur 0 -- -- 55
2020-04-04 13:00:00 13 19 Sur 32 Sur 0 -- -- 58
2020-04-04 12:00:00 11.3 15 Sur 24 Sudoeste 0 -- -- 71
2020-04-04 11:00:00 8.1 12 Sur 20 Sudeste 0 -- -- 79
2020-04-04 10:00:00 5.7 8 Sur 15 Sur 0 -- -- 84
2020-04-04 09:00:00 1.3 5 Sur 9 Sur 0 -- -- 91
2020-04-04 08:00:00 -0.7 5 Sudoeste 8 Sudoeste 0 -- -- 98
2020-04-04 07:00:00 0.5 4 Sudoeste 8 Sudoeste 0 -- -- 97
2020-04-04 06:00:00 -0.4 0 Calma 5 Sudoeste 0 -- -- 94
2020-04-04 05:00:00 1 5 Sudoeste 9 Sudoeste 0 -- -- 93
2020-04-04 04:00:00 1.1 6 Sudoeste 9 Sudoeste 0 -- -- 92
2020-04-04 03:00:00 1.5 6 Sur 8 Sur 0 -- -- 96
2020-04-04 02:00:00 2.3 3 Sur 6 Sudoeste 0 -- -- 96
2020-04-04 01:00:00 2.9 3 Sudoeste 8 Sudoeste 0 -- -- 91
2020-04-04 00:00:00 4.8 5 Sudoeste 13 Sudoeste 0 -- -- 82
2020-04-03 23:00:00 5.1 7 Sudoeste 17 Sudoeste 0 -- -- 72
2020-04-03 22:00:00 5.2 0 Calma 8 Nordeste 0 -- -- 75
2020-04-03 21:00:00 7.7 5 Noroeste 9 Noroeste 0 -- -- 62
2020-04-03 20:00:00 11.9 3 Norte 13 Nordeste 0 -- -- 50
2020-04-03 19:00:00 13.2 7 Nordeste 17 Nordeste 0 -- -- 41
2020-04-03 18:00:00 13.7 11 Nordeste 19 Nordeste 0 -- -- 40
2020-04-03 17:00:00 13 11 Nordeste 23 Nordeste 0 -- -- 44
2020-04-03 16:00:00 13.1 12 Nordeste 24 Nordeste 0 -- -- 50
2020-04-03 15:00:00 12.2 13 Nordeste 22 Nordeste 0 -- -- 57
2020-04-03 14:00:00 10.6 9 Nordeste 21 Nordeste 0 -- -- 59
2020-04-03 13:00:00 9.2 6 Nordeste 14 Nordeste 0 -- -- 59
2020-04-03 12:00:00 6.8 5 Sudeste 9 Este 0 -- -- 64
2020-04-03 11:00:00 5.7 5 Nordeste 13 Nordeste 0 -- -- 65
2020-04-03 10:00:00 4.2 2 Nordeste 4 Norte 0 -- -- 66
2020-04-03 09:00:00 2.2 2 Sudeste 3 Sur 0 -- -- 80
2020-04-03 08:00:00 -1.1 0 Calma 10 Norte 0 -- -- 96
2020-04-03 07:00:00 -0.8 3 Norte 8 Norte 0 -- -- 93
2020-04-03 06:00:00 -0.1 5 Norte 11 Norte 0 -- -- 91
2020-04-03 05:00:00 1.8 7 Norte 12 Norte 0 -- -- 87
2020-04-03 04:00:00 1.8 7 Norte 20 Norte 0 -- -- 88
2020-04-03 03:00:00 2.9 14 Norte 26 Norte 0 -- -- 85
2020-04-03 02:00:00 3.6 19 Norte 31 Norte 0 -- -- 82
2020-04-03 01:00:00 3.3 2 Nordeste 37 Norte 0 -- -- 89
2020-04-03 00:00:00 5.3 17 Norte 28 Norte 0 -- -- 79
2020-04-02 23:00:00 6.2 12 Norte 22 Norte 0 -- -- 87
2020-04-02 22:00:00 6.9 14 Norte 23 Norte 0 -- -- 90
2020-04-02 21:00:00 6.9 6 Nordeste 19 Norte 2.2 -- -- 93
2020-04-02 20:00:00 7.6 11 Norte 26 Norte 0 -- -- 86
2020-04-02 19:00:00 7.9 15 Norte 32 Norte 0 -- -- 83
2020-04-02 18:00:00 8.4 20 Norte 32 Nordeste 0 -- -- 79
2020-04-02 17:00:00 9.2 20 Norte 31 Norte 0 -- -- 78
2020-04-02 16:00:00 9.4 19 Norte 31 Norte 0 -- -- 77
2020-04-02 15:00:00 8.5 17 Norte 29 Nordeste 0 -- -- 79
2020-04-02 14:00:00 9.7 17 Norte 25 Norte 0 -- -- 70
2020-04-02 13:00:00 9 11 Norte 18 Norte 0 -- -- 78
2020-04-02 12:00:00 7.4 7 Norte 15 Norte 0 -- -- 79
2020-04-02 11:00:00 6.5 9 Norte 18 Nordeste 0 -- -- 83
2020-04-02 10:00:00 5.7 7 Nordeste 17 Nordeste 0 -- -- 88
2020-04-02 09:00:00 5.1 8 Norte 17 Norte 0 -- -- 93
2020-04-02 08:00:00 4.9 10 Norte 18 Norte 0 -- -- 96
2020-04-02 07:00:00 5 8 Norte 13 Norte 0 -- -- 98
2020-04-02 06:00:00 5 8 Norte 13 Norte 0 -- -- 98
2020-04-02 05:00:00 4.5 7 Norte 15 Norte 0 -- -- 98
2020-04-02 04:00:00 5.1 5 Nordeste 11 Nordeste 0 -- -- 97
2020-04-02 03:00:00 5.6 5 Norte 9 Norte 0 -- -- 96
2020-04-02 02:00:00 5.8 2 Nordeste 11 Nordeste 0 -- -- 95
2020-04-02 01:00:00 4.9 0 Calma 13 Noroeste 0 -- -- 96
2020-04-02 00:00:00 5 5 Noroeste 17 Norte 0 -- -- 94
2020-04-01 23:00:00 6.2 9 Nordeste 88 Noroeste 0 -- -- 90
2020-04-01 22:00:00 6.5 11 Norte 19 Norte 0 -- -- 83
2020-04-01 21:00:00 7.1 15 Norte 23 Norte 0 -- -- 86
2020-04-01 20:00:00 7.8 10 Norte 26 Norte 0 -- -- 86
2020-04-01 19:00:00 8.7 17 Norte 25 Norte 0 -- -- 82
2020-04-01 18:00:00 10.5 8 Norte 13 Norte 0 -- -- 73
2020-04-01 17:00:00 10.4 9 Nordeste 21 Norte 0.4 -- -- 79
2020-04-01 16:00:00 8.5 21 Noroeste 32 Noroeste 1 -- -- 90
2020-04-01 15:00:00 13.2 7 Nordeste 15 Nordeste 0 -- -- 66
2020-04-01 14:00:00 12 7 Nordeste 15 Nordeste 0 -- -- 79
2020-04-01 13:00:00 9.8 7 Nordeste 12 Nordeste 0 -- -- 82
2020-04-01 12:00:00 6.8 3 Norte 9 Norte 1.2 -- -- 95
2020-04-01 11:00:00 6.2 4 Nordeste 7 Este 1.2 -- -- 98
2020-04-01 10:00:00 5.9 0 Calma 6 Noroeste 0.8 -- -- 96
2020-04-01 09:00:00 5.5 3 Noroeste 8 Oeste 0.2 -- -- 98
2020-04-01 08:00:00 4.8 0 Calma 13 Este 0 -- -- 99
2020-04-01 07:00:00 5 0 Calma 43 Este 0.6 -- -- 98
2020-04-01 06:00:00 5.5 0 Calma 11 Sudoeste 3.2 -- -- 97
2020-04-01 05:00:00 5.3 0 Calma 10 Oeste 2.2 -- -- 99
2020-04-01 04:00:00 5.2 3 Noroeste 11 Este 0.2 -- -- 99
2020-04-01 03:00:00 5.2 0 Calma 0 Calma 0.8 -- -- 98
2020-04-01 02:00:00 5.5 0 Calma 16 Sudoeste 0 -- -- 96
2020-04-01 01:00:00 5.8 4 Sudoeste 9 Sudoeste 0 -- -- 93
2020-04-01 00:00:00 5.9 4 Sudoeste 25 Sur 0 -- -- 93
2020-03-31 23:00:00 6.1 6 Sudoeste 13 Sudoeste 0 -- -- 93
2020-03-31 22:00:00 6.3 4 Sur 51 Este 0 -- -- 91
2020-03-31 21:00:00 6 0 Calma 73 Oeste 0 -- -- 92
2020-03-31 20:00:00 7.9 9 Sudoeste 18 Sudoeste 0 -- -- 86
2020-03-31 19:00:00 7.5 3 Norte 11 Nordeste 0 -- -- 86
2020-03-31 18:00:00 8.1 3 Nordeste 10 Sudoeste 0 -- -- 83
2020-03-31 17:00:00 9.1 3 Sudoeste 13 Nordeste 0 -- -- 76
2020-03-31 16:00:00 6.8 0 Calma 12 Este 0.2 -- -- 81
2020-03-31 15:00:00 4.7 3 Nordeste 21 Nordeste 0 -- -- 84
2020-03-31 14:00:00 3.7 2 Sudeste 22 Este 0 -- -- 86
2020-03-31 13:00:00 2.3 2 Nordeste 32 Este 0.2 -- -- 89
2020-03-31 12:00:00 0.7 0 Calma 22 Nordeste 0.2 -- -- 94
2020-03-31 11:00:00 0.3 3 Norte 10 Nordeste 0.6 -- -- 95
2020-03-31 10:00:00 -0.6 6 Nordeste 35 Nordeste 1.6 -- -- 97
2020-03-31 09:00:00 -1.2 5 Nordeste 8 Nordeste 0.6 -- -- 98
2020-03-31 08:00:00 -1.7 4 Nordeste 8 Norte 0.4 -- -- 99
2020-03-31 07:00:00 -1.7 3 Norte 12 Norte 0 -- -- 99
2020-03-31 06:00:00 -1.8 4 Norte 16 Noroeste 0.4 -- -- 99
2020-03-31 05:00:00 -2.1 2 Norte 13 Norte 0.4 -- -- 99
2020-03-31 04:00:00 -2.1 10 Norte 17 Norte 0.8 -- -- 99
2020-03-31 03:00:00 -1.9 12 Norte 19 Norte 2 -- -- 99
2020-03-31 02:00:00 -1.5 12 Norte 19 Norte 1.4 -- -- 99
2020-03-31 01:00:00 -1.2 12 Norte 18 Norte 0.8 -- -- 99
2020-03-31 00:00:00 -1.1 9 Norte 15 Norte 0.4 -- -- 98
2020-03-30 23:00:00 -0.9 10 Norte 15 Norte 0.2 -- -- 97
2020-03-30 22:00:00 -0.8 8 Norte 12 Norte 0.4 -- -- 97
2020-03-30 21:00:00 -0.6 5 Nordeste 14 Norte 0 -- -- 93
2020-03-30 20:00:00 0.2 7 Nordeste 16 Norte 0 -- -- 85
2020-03-30 19:00:00 0.2 13 Norte 19 Nordeste 0 -- -- 91
2020-03-30 18:00:00 0.2 7 Norte 17 Norte 0.2 -- -- 94
2020-03-30 17:00:00 0.3 0 Calma 8 Norte 0.2 -- -- 95
2020-03-30 16:00:00 0.7 0 Calma 0 Calma 0 -- -- 97
2020-03-30 15:00:00 0.6 0 Calma 8 Norte 0 -- -- 96
2020-03-30 14:00:00 0.4 0 Calma 5 Norte 0.2 -- -- 97
2020-03-30 13:00:00 -0.2 0 Calma 5 Norte 0 -- -- 98
2020-03-30 12:00:00 -0.7 0 Calma 22 Norte 1 -- -- 98
2020-03-30 11:00:00 -1.1 3 Norte 11 Norte 1.2 -- -- 99
2020-03-30 10:00:00 -0.6 0 Calma 0 Calma 1 -- -- 99
2020-03-30 09:00:00 -0.2 0 Calma -- -- 1 -- -- 98
2020-03-30 08:00:00 1.3 0 Calma -- -- 0.2 -- -- 95
2020-03-30 07:00:00 3 0 Calma 0 Calma 0 -- -- 92
2020-03-30 06:00:00 3.4 0 Calma 0 Calma 0 -- -- 87
2020-03-30 05:00:00 3.4 0 Calma 0 Calma 0 -- -- 89
2020-03-30 04:00:00 4.4 0 Calma 0 Calma 0 -- -- 86
2020-03-30 03:00:00 4.4 0 Calma 0 Calma 0 -- -- 87
2020-03-30 02:00:00 3.7 0 Calma -- -- 0 -- -- 91
2020-03-30 01:00:00 4.5 0 Calma 0 Calma 0 -- -- 88
2020-03-30 00:00:00 4.2 0 Calma 0 Calma 0 -- -- 89
2020-03-29 23:00:00 5.1 0 Calma 0 Calma 0 -- -- 84
2020-03-29 22:00:00 6.1 0 Calma 0 Calma 0 -- -- 79
2020-03-29 21:00:00 7.6 0 Calma 0 Calma 0 -- -- 69
2020-03-29 20:00:00 10.7 0 Calma 0 Calma 0 -- -- 53
2020-03-29 19:00:00 14 0 Calma 0 Calma 0 -- -- 42
2020-03-29 18:00:00 13.9 0 Calma 0 Calma 0 -- -- 41
2020-03-29 17:00:00 15.1 0 Calma 0 Calma 0 -- -- 41
2020-03-29 16:00:00 16.4 0 Calma 0 Calma 0 -- -- 44
2020-03-29 15:00:00 15.3 0 Calma 0 Calma 0 -- -- 44
2020-03-29 14:00:00 14.8 0 Calma 0 Calma 0 -- -- 49
2020-03-29 13:00:00 13.9 0 Calma 0 Calma 0 -- -- 48
2020-03-29 12:00:00 11.3 0 Calma 2 Nordeste 0 -- -- 65
2020-03-29 11:00:00 8.2 0 Calma 2 Sudeste 0 -- -- 68
2020-03-29 10:00:00 4 0 Calma 0 Calma 0 -- -- 84
2020-03-29 09:00:00 0.6 0 Calma 0 Calma 0 -- -- 91
2020-03-29 08:00:00 -2 0 Calma 0 Calma 0 -- -- 98
2020-03-29 07:00:00 -1.3 0 Calma 0 Calma 0 -- -- 97
2020-03-29 06:00:00 -0.6 0 Calma 0 Calma 0 -- -- 95
2020-03-29 05:00:00 -0.7 0 Calma 0 Calma 0 -- -- 95
2020-03-29 03:00:00 1.3 0 Calma 0 Calma 0 -- -- 88
2020-03-29 01:00:00 1.2 0 Calma 3 Oeste 0 -- -- 91
2020-03-29 00:00:00 2.6 0 Calma 2 Oeste 0 -- -- 86
2020-03-28 23:00:00 3.3 0 Calma 2 Oeste 0 -- -- 82
2020-03-28 22:00:00 5.2 0 Calma -- -- 0 -- -- 78
2020-03-28 21:00:00 5.6 0 Calma -- -- 0 -- -- 77
2020-03-28 20:00:00 7.7 0 Calma -- -- 0 -- -- 71
2020-03-28 19:00:00 11.2 0 Calma 0 Calma 0 -- -- 55
2020-03-28 18:00:00 11.5 0 Calma 2 Oeste 0 -- -- 46
2020-03-28 17:00:00 11.2 0 Calma 3 Nordeste 0 -- -- 48
2020-03-28 16:00:00 11.6 0 Calma 3 Sur 0 -- -- 45
2020-03-28 15:00:00 11.6 0 Calma 0 Calma 0 -- -- 49
2020-03-28 14:00:00 11 0 Calma 2 Nordeste 0 -- -- 48
2020-03-28 13:00:00 10.2 0 Calma 2 Este 0 -- -- 52
2020-03-28 12:00:00 9.5 0 Calma 2 Este 0 -- -- 54
2020-03-28 11:00:00 8.8 0 Calma 5 Noroeste 0 -- -- 61
2020-03-28 10:00:00 7.2 0 Calma 6 Norte 0 -- -- 63
2020-03-28 09:00:00 3.1 3 Norte 9 Norte 0 -- -- 92
2020-03-28 08:00:00 1 4 Norte 22 Norte 0 -- -- 96
2020-03-28 07:00:00 0.3 0 Calma 5 Sudeste 0 -- -- 95
2020-03-28 06:00:00 -0.3 0 Calma -- -- 0 -- -- 96
2020-03-28 05:00:00 -0.2 0 Calma -- -- 0 -- -- 95
2020-03-28 04:00:00 -0.6 0 Calma 0 Calma 0 -- -- 97
2020-03-28 03:00:00 -2 0 Calma 2 Noroeste 0 -- -- 96
2020-03-28 02:00:00 -1.6 0 Calma 2 Norte 0 -- -- 95
2020-03-28 01:00:00 -0.5 2 Noroeste 8 Noroeste 0 -- -- 93
2020-03-28 00:00:00 -0.8 0 Calma 7 Oeste 0 -- -- 95
2020-03-27 23:00:00 -0.4 0 Calma 4 Noroeste 0 -- -- 95
2020-03-27 22:00:00 0.3 0 Calma 4 Nordeste 0 -- -- 97
2020-03-27 21:00:00 1.9 0 Calma 5 Sudoeste 0 -- -- 90
2020-03-27 20:00:00 3.4 4 Sur 10 Sur 0 -- -- 86
2020-03-27 19:00:00 5.8 3 Sudoeste 12 Sudoeste 0 -- -- 63
2020-03-27 18:00:00 5.8 10 Sudoeste 26 Sudoeste 0 -- -- 63
2020-03-27 17:00:00 6.8 6 Noroeste 23 Este 0 -- -- 59
2020-03-27 16:00:00 7.9 8 Nordeste 20 Nordeste 0 -- -- 55
2020-03-27 15:00:00 8.7 6 Norte 21 Sudeste 0 -- -- 55
2020-03-27 14:00:00 9.9 4 Este 17 Sudeste 0 -- -- 51
2020-03-27 13:00:00 7.8 6 Noroeste 12 Sur 0 -- -- 58
2020-03-27 12:00:00 6.1 7 Nordeste 13 Este 0 -- -- 62
2020-03-27 11:00:00 5.1 5 Norte 14 Nordeste 0 -- -- 62
2020-03-27 10:00:00 2.4 10 Norte 17 Norte 0 -- -- 75
2020-03-27 09:00:00 1.3 6 Norte 9 Norte 0 -- -- 76
2020-03-27 08:00:00 -1.7 3 Norte 8 Norte 0 -- -- 89
2020-03-27 07:00:00 -2.5 5 Nordeste 15 Este 0 -- -- 87
2020-03-27 06:00:00 -1.4 3 Nordeste 7 Noroeste 0 -- -- 86
2020-03-27 05:00:00 -2.7 0 Calma -- -- 0 -- -- 89
2020-03-27 04:00:00 -3 0 Calma -- -- 0 -- -- 88
2020-03-27 03:00:00 -3.2 0 Calma 8 Nordeste 0 -- -- 86
2020-03-27 02:00:00 -2 7 Noroeste 15 Noroeste 0 -- -- 82
2020-03-27 01:00:00 -1.2 11 Noroeste 17 Noroeste 0 -- -- 80
2020-03-27 00:00:00 -1.1 12 Noroeste 14 Noroeste 0 -- -- 81
2020-03-26 23:00:00 0 12 Noroeste 16 Norte 0 -- -- 77
2020-03-26 22:00:00 0.8 12 Norte 15 Norte 0 -- -- 76
2020-03-26 21:00:00 1.5 12 Noroeste 15 Norte 0 -- -- 73
2020-03-26 20:00:00 2.1 6 Norte 18 Nordeste 0 -- -- 72
2020-03-26 19:00:00 5.7 13 Nordeste 30 Nordeste 0 -- -- 53
2020-03-26 18:00:00 7.4 20 Nordeste 37 Nordeste 0 -- -- 48
2020-03-26 17:00:00 8.8 22 Nordeste 42 Norte 0 -- -- 47
2020-03-26 16:00:00 8.6 29 Norte 49 Norte 0 -- -- 45
2020-03-26 15:00:00 7.2 28 Norte 50 Norte 0 -- -- 55
2020-03-26 14:00:00 6.3 22 Norte 53 Norte 0 -- -- 62
2020-03-26 13:00:00 5.2 24 Norte 53 Norte 0 -- -- 68
2020-03-26 12:00:00 6 26 Norte 40 Norte 0 -- -- 69
2020-03-26 11:00:00 6.2 19 Nordeste 37 Norte 0 -- -- 70
2020-03-26 10:00:00 3.8 22 Norte 36 Norte 0 -- -- 75
2020-03-26 09:00:00 3.1 9 Nordeste 15 Nordeste 0 -- -- 83
2020-03-26 08:00:00 1.4 5 Nordeste 8 Nordeste 0 -- -- 90
2020-03-26 07:00:00 1.1 5 Norte 23 Norte 0 -- -- 93
2020-03-26 06:00:00 0.6 10 Norte 23 Norte 0 -- -- 92
2020-03-26 05:00:00 2 9 Norte 15 Norte 0 -- -- 92
2020-03-26 04:00:00 2 2 Oeste 7 Sudoeste 0 -- -- 98
2020-03-26 03:00:00 2.2 3 Sudoeste 9 Sur 0 -- -- 98
2020-03-26 02:00:00 2.4 4 Sudoeste 9 Sudoeste 0 -- -- 98
2020-03-26 01:00:00 1.7 0 Calma 8 Sudoeste 0 -- -- 99
2020-03-26 00:00:00 2.2 4 Sudoeste 8 Sudoeste 0 -- -- 97
2020-03-25 23:00:00 2.8 4 Sur 11 Sudoeste 0 -- -- 96
2020-03-25 22:00:00 3.1 0 Calma 5 Oeste 0 -- -- 88
2020-03-25 21:00:00 3.9 4 Oeste 10 Norte 0 -- -- 84
2020-03-25 20:00:00 4.8 7 Norte 12 Norte 0 -- -- 79
2020-03-25 19:00:00 7.8 10 Norte 21 Norte 0 -- -- 65
2020-03-25 18:00:00 9.7 15 Nordeste 23 Nordeste 0 -- -- 55
2020-03-25 17:00:00 10.8 14 Norte 29 Norte 0 -- -- 52
2020-03-25 16:00:00 11.2 13 Norte 28 Nordeste 0 -- -- 48
2020-03-25 15:00:00 11.2 18 Nordeste 33 Norte 0 -- -- 53
2020-03-25 14:00:00 10.3 19 Nordeste 33 Norte 0 -- -- 63
2020-03-25 13:00:00 8.4 14 Nordeste 26 Nordeste 0 -- -- 70
2020-03-25 12:00:00 8.3 2 Norte 10 Este 0 -- -- 79
2020-03-25 11:00:00 6.7 4 Sudoeste 9 Sur 0 -- -- 80
2020-03-25 10:00:00 4.2 6 Sur 14 Sudeste 0 -- -- 90
2020-03-25 09:00:00 3.4 9 Sur 16 Sur 0 -- -- 92
2020-03-25 08:00:00 3.1 9 Sur 13 Sur 0 -- -- 93
2020-03-25 07:00:00 2.8 10 Sur 16 Sur 0 -- -- 94
2020-03-25 06:00:00 3.2 6 Sur 13 Sudeste 0 -- -- 94
2020-03-25 05:00:00 3.1 6 Sur 10 Sur 0.2 -- -- 94
2020-03-25 04:00:00 3 3 Sur 6 Sudeste 0.2 -- -- 94
2020-03-25 03:00:00 2.4 0 Calma 6 Sur 0 -- -- 94
2020-03-25 02:00:00 1.7 0 Calma 6 Sur 0 -- -- 96
2020-03-25 01:00:00 2.5 8 Sudoeste 15 Sudoeste 0 -- -- 91
2020-03-25 00:00:00 2 6 Sudoeste 10 Sudoeste 0 -- -- 93
2020-03-24 23:00:00 3.2 4 Sudoeste 8 Sudoeste 0 -- -- 86
2020-03-24 22:00:00 3.9 0 Calma 4 Sudoeste 0 -- -- 85
2020-03-24 21:00:00 5.3 2 Sur 8 Sudeste 0 -- -- 80
2020-03-24 20:00:00 6.9 4 Sudeste 20 Este 0 -- -- 72
2020-03-24 19:00:00 7.8 10 Sudeste 18 Este 0 -- -- 70
2020-03-24 18:00:00 8.5 12 Este 23 Sudeste 0 -- -- 66
2020-03-24 17:00:00 9.3 15 Este 25 Este 0 -- -- 66
2020-03-24 16:00:00 10.3 13 Este 25 Sudeste 0 -- -- 64
2020-03-24 15:00:00 10.3 13 Este 23 Sudeste 0 -- -- 61
2020-03-24 14:00:00 10.6 14 Sudeste 30 Sudeste 0 -- -- 56
2020-03-24 13:00:00 10.8 20 Sudeste 32 Sudeste 0 -- -- 57
2020-03-24 12:00:00 10.7 21 Sudeste 32 Este 0 -- -- 64
2020-03-24 11:00:00 8.4 15 Este 27 Este 0 -- -- 73
2020-03-24 10:00:00 8.1 9 Este 17 Nordeste 0 -- -- 77
2020-03-24 09:00:00 7.4 10 Este 22 Este 0 -- -- 81
2020-03-24 08:00:00 6.6 7 Este 14 Este 0 -- -- 84
2020-03-24 07:00:00 6.2 7 Este 14 Este 0 -- -- 85
2020-03-24 06:00:00 5.8 5 Nordeste 8 Nordeste 0 -- -- 91
2020-03-24 05:00:00 6.1 4 Norte 7 Norte 0 -- -- 90
2020-03-24 04:00:00 5.6 0 Calma 6 Norte 0 -- -- 92
2020-03-24 03:00:00 5.4 3 Norte 8 Este 0 -- -- 90
2020-03-24 02:00:00 5.7 0 Calma 11 Sudeste 0.2 -- -- 92
2020-03-24 01:00:00 7.2 6 Sudeste 12 Sur 0 -- -- 85
2020-03-24 00:00:00 7.3 0 Calma 7 Sur 0 -- -- 83
2020-03-23 23:00:00 7.4 2 Sur 8 Sudeste 0 -- -- 84
2020-03-23 22:00:00 7 3 Sudoeste 10 Sudoeste 0 -- -- 88
2020-03-23 21:00:00 7.4 3 Sudoeste 16 Sur 0 -- -- 87
2020-03-23 20:00:00 8.2 12 Sur 20 Sur 0 -- -- 81
2020-03-23 19:00:00 8.4 9 Sur 19 Sudoeste 0 -- -- 78
2020-03-23 18:00:00 9.5 15 Sur 28 Sur 0 -- -- 73
2020-03-23 17:00:00 10 19 Sur 35 Sur 0 -- -- 74
2020-03-23 16:00:00 11.5 17 Sur 26 Sur 0 -- -- 70
2020-03-23 15:00:00 11.6 11 Sur 25 Sudoeste 0 -- -- 67
2020-03-23 14:00:00 10.6 19 Sudoeste 29 Sudoeste 0 -- -- 74
2020-03-23 13:00:00 10 10 Sur 19 Sur 0 -- -- 76
2020-03-23 12:00:00 9.1 5 Sudoeste 10 Oeste 0 -- -- 83
2020-03-23 11:00:00 7.6 0 Calma 8 Oeste 1.6 -- -- 88
2020-03-23 10:00:00 6.7 0 Calma 9 Norte 1.2 -- -- 92
2020-03-23 09:00:00 6.4 6 Norte 10 Norte 0.2 -- -- 93
2020-03-23 08:00:00 6.1 6 Norte 10 Norte 0 -- -- 94
2020-03-23 07:00:00 5.4 5 Norte 9 Norte 0 -- -- 97
2020-03-23 06:00:00 5.7 5 Noroeste 9 Noroeste 0 -- -- 97
2020-03-23 05:00:00 5.5 0 Calma 6 Norte 0.2 -- -- 98
2020-03-23 04:00:00 5.1 0 Calma 5 Noroeste 0 -- -- 98
2020-03-23 03:00:00 4.7 0 Calma -- -- 0 -- -- 98
2020-03-23 02:00:00 5.6 0 Calma -- -- 0 -- -- 96
2020-03-23 01:00:00 5.9 0 Calma 8 Sudoeste 0 -- -- 94
2020-03-23 00:00:00 6.3 5 Sudoeste 8 Oeste 0 -- -- 90
2020-03-22 23:00:00 5.6 0 Calma 6 Sudoeste 0 -- -- 95
2020-03-22 22:00:00 6.5 0 Calma 7 Sudoeste 0 -- -- 93
2020-03-22 21:00:00 6.9 0 Calma -- -- 0.2 -- -- 97
2020-03-22 20:00:00 7.1 0 Calma -- -- 0 -- -- 95
2020-03-22 19:00:00 7.2 2 Norte 7 Nordeste 0.4 -- -- 94
2020-03-22 18:00:00 7.6 0 Calma 5 Sur 0.4 -- -- 88
2020-03-22 17:00:00 8.8 0 Calma 5 Sur 0 -- -- 75
2020-03-22 16:00:00 8.4 0 Calma 10 Sudoeste 0 -- -- 76
2020-03-22 15:00:00 9 5 Sudoeste 12 Sudoeste 0 -- -- 75
2020-03-22 14:00:00 8.9 5 Sudeste 13 Este 0 -- -- 71
2020-03-22 13:00:00 7.3 8 Sudeste 17 Sur 1 -- -- 84
2020-03-22 12:00:00 7.7 8 Sur 14 Sur 0 -- -- 74
2020-03-22 11:00:00 7.8 4 Norte 15 Norte 0 -- -- 84
2020-03-22 10:00:00 7.2 3 Norte 5 Norte 0 -- -- 92
2020-03-22 09:00:00 6 0 Calma -- -- 0 -- -- 94
2020-03-22 08:00:00 5.3 0 Calma -- -- 0.4 -- -- 98
2020-03-22 07:00:00 5.2 0 Calma -- -- 0.8 -- -- 98
2020-03-22 06:00:00 5.1 0 Calma 5 Sur 1.2 -- -- 97
2020-03-22 05:00:00 5.2 3 Sur 7 Sur 0.4 -- -- 95
2020-03-22 04:00:00 5.6 4 Sur 8 Sur 0.6 -- -- 92
2020-03-22 03:00:00 6.2 4 Sudoeste 10 Sur 0.2 -- -- 92
2020-03-22 02:00:00 6.4 5 Sur 12 Sur 0 -- -- 96
2020-03-22 01:00:00 6.8 7 Sur 14 Sur 0 -- -- 92
2020-03-22 00:00:00 7 8 Sur 14 Sur 0 -- -- 91
2020-03-21 23:00:00 7.2 4 Sudeste 14 Sur 0 -- -- 90
2020-03-21 22:00:00 7.4 6 Sur 17 Sur 0 -- -- 88
2020-03-21 21:00:00 8 6 Sur 10 Sur 0 -- -- 85
2020-03-21 20:00:00 8.4 6 Sur 14 Sur 0 -- -- 80
2020-03-21 19:00:00 8.7 4 Sudoeste 11 Sur 0 -- -- 79
2020-03-21 18:00:00 10 6 Sur 18 Sudoeste 0 -- -- 70
2020-03-21 17:00:00 10.5 12 Sur 22 Sudoeste 0 -- -- 68
2020-03-21 16:00:00 10.2 12 Sur 21 Sur 0 -- -- 69
2020-03-21 15:00:00 9.7 12 Sur 22 Sudeste 0 -- -- 73
2020-03-21 14:00:00 8.9 10 Sur 17 Sur 0 -- -- 75
2020-03-21 13:00:00 8.6 9 Sur 17 Sur 0 -- -- 76
2020-03-21 12:00:00 7.6 11 Sur 17 Sudoeste 0 -- -- 80
2020-03-21 11:00:00 6.9 10 Sur 15 Sur 0 -- -- 79
2020-03-21 10:00:00 5.1 9 Sudoeste 13 Sudoeste 0 -- -- 88
2020-03-21 09:00:00 4.1 4 Sudoeste 9 Sudoeste 0 -- -- 89
2020-03-21 08:00:00 3.1 0 Calma 4 Sudoeste 0 -- -- 94
2020-03-21 07:00:00 2 4 Sudoeste 9 Sudoeste 0 -- -- 94
2020-03-21 06:00:00 2.4 2 Sur 9 Sudoeste 0 -- -- 91
2020-03-21 05:00:00 2.6 0 Calma 10 Sudoeste 0 -- -- 92
2020-03-21 04:00:00 3.6 9 Sur 21 Sur 0 -- -- 91
2020-03-21 03:00:00 5.6 13 Sur 24 Sur 0 -- -- 87
2020-03-21 02:00:00 5.5 17 Sur 27 Sur 0 -- -- 84
2020-03-21 01:00:00 6.3 13 Sur 26 Sudoeste 0 -- -- 89
2020-03-21 00:00:00 6.1 13 Sur 21 Sur 0 -- -- 92
2020-03-20 23:00:00 5.1 7 Sur 13 Sudoeste 0 -- -- 94
2020-03-20 22:00:00 5 5 Sudoeste 10 Sur 0 -- -- 93
2020-03-20 21:00:00 6.2 8 Sur 14 Sudoeste 0 -- -- 90
2020-03-20 20:00:00 7.1 9 Sudoeste 20 Sur 0 -- -- 87
2020-03-20 19:00:00 9 14 Sur 29 Sur 0 -- -- 78
2020-03-20 18:00:00 10.9 17 Sur 28 Sudeste 0 -- -- 70
2020-03-20 17:00:00 12 17 Sur 29 Sur 0 -- -- 63
2020-03-20 16:00:00 13.1 15 Sur 24 Sudeste 0 -- -- 61
2020-03-20 15:00:00 12.5 11 Sur 27 Sur 0 -- -- 65
2020-03-20 14:00:00 10.5 15 Sur 30 Sur 0 -- -- 69
2020-03-20 13:00:00 10.2 17 Sur 27 Sur 0 -- -- 70
2020-03-20 12:00:00 9.4 13 Sur 24 Sur 0 -- -- 71
2020-03-20 11:00:00 7.5 14 Sur 25 Sur 0 -- -- 77
2020-03-20 10:00:00 6.9 16 Sur 24 Sudoeste 0 -- -- 80
2020-03-20 09:00:00 6.2 13 Sur 22 Sur 0 -- -- 84
2020-03-20 08:00:00 5.5 9 Sur 15 Sur 0 -- -- 87
2020-03-20 07:00:00 4.8 3 Sudoeste 10 Sudoeste 0 -- -- 92
2020-03-20 06:00:00 4.1 8 Sudoeste 14 Sudoeste 0 -- -- 93
2020-03-20 05:00:00 2.9 6 Sudoeste 17 Sur 0 -- -- 93
2020-03-20 04:00:00 4.2 13 Sur 20 Sudoeste 0 -- -- 91
2020-03-20 03:00:00 4.8 8 Sur 18 Sur 0 -- -- 93
2020-03-20 02:00:00 4.9 13 Sur 20 Sur 0 -- -- 91
2020-03-20 01:00:00 5.5 14 Sur 21 Sur 0 -- -- 93
2020-03-20 00:00:00 4.9 9 Sudoeste 15 Sur 0 -- -- 94
2020-03-19 23:00:00 5.5 5 Sudoeste 12 Sudoeste 0 -- -- 94
2020-03-19 22:00:00 6.2 6 Sur 11 Sur 0 -- -- 92
2020-03-19 21:00:00 6.9 0 Calma 19 Sur 0 -- -- 87
2020-03-19 20:00:00 8.6 14 Sur 22 Sur 0 -- -- 76
2020-03-19 19:00:00 10.1 12 Sur 28 Sur 0 -- -- 70
2020-03-19 18:00:00 12.3 20 Sur 30 Sur 0 -- -- 62
2020-03-19 17:00:00 14.2 17 Sur 26 Sur 0 -- -- 53
2020-03-19 16:00:00 14.5 17 Sur 26 Sur 0 -- -- 48
2020-03-19 15:00:00 14.2 17 Sur 28 Sur 0 -- -- 50
2020-03-19 14:00:00 13.7 16 Sur 25 Sur 0 -- -- 46
2020-03-19 13:00:00 12.5 16 Sudoeste 27 Sur 0 -- -- 53
2020-03-19 12:00:00 11.3 15 Sur 28 Sur 0 -- -- 53
2020-03-19 11:00:00 9.8 11 Sur 18 Sur 0 -- -- 65
2020-03-19 10:00:00 8.1 8 Sur 12 Sur 0 -- -- 73
2020-03-19 09:00:00 5.9 4 Sudoeste 6 Sudoeste 0 -- -- 86
2020-03-19 08:00:00 2.8 0 Calma 3 Sur 0 -- -- 97
2020-03-19 07:00:00 2 0 Calma -- -- 0 -- -- 98
2020-03-19 06:00:00 2 0 Calma -- -- 0 -- -- 99
2020-03-19 05:00:00 2.2 0 Calma -- -- 0 -- -- 97
2020-03-19 04:00:00 2 0 Calma 9 Noroeste 0 -- -- 96
2020-03-19 03:00:00 2 0 Calma -- -- 0 -- -- 99
2020-03-19 02:00:00 3.6 0 Calma -- -- 0 -- -- 96
2020-03-19 01:00:00 3.7 0 Calma 8 Noroeste 0 -- -- 96
2020-03-19 00:00:00 4.3 4 Oeste 7 Oeste 0 -- -- 92
2020-03-18 23:00:00 5.1 5 Oeste 6 Oeste 0 -- -- 91
2020-03-18 22:00:00 7.2 6 Sudoeste 12 Sudoeste 0 -- -- 85
2020-03-18 21:00:00 8 8 Sudoeste 10 Sudoeste 0 -- -- 86
2020-03-18 20:00:00 8.9 4 Sudoeste 8 Sudoeste 0 -- -- 89
2020-03-18 19:00:00 10.8 3 Sur 7 Sur 0 -- -- 81
2020-03-18 18:00:00 12.5 4 Sur 6 Sudoeste 0 -- -- 68
2020-03-18 17:00:00 13.4 0 Calma 6 Sudeste 0 -- -- 61
2020-03-18 16:00:00 13.3 3 Sudeste 11 Sur 0 -- -- 59
2020-03-18 15:00:00 13.5 6 Sur 13 Sudeste 0 -- -- 60
2020-03-18 14:00:00 12.4 6 Sur 12 Sur 0 -- -- 69
2020-03-18 13:00:00 11.8 4 Sudoeste 9 Sudoeste 0 -- -- 64
2020-03-18 12:00:00 11.1 2 Noroeste 5 Noroeste 0 -- -- 65
2020-03-18 11:00:00 9.5 0 Calma 5 Este 0 -- -- 80
2020-03-18 10:00:00 7.4 0 Calma 4 Nordeste 0 -- -- 88
2020-03-18 09:00:00 5.1 0 Calma 5 Noroeste 0 -- -- 99
2020-03-18 08:00:00 3 2 Nordeste 4 Nordeste 0 -- -- 100
2020-03-18 07:00:00 3.3 0 Calma -- -- 0 -- -- 99
2020-03-18 06:00:00 3.8 0 Calma -- -- 0 -- -- 99
2020-03-18 05:00:00 3.9 0 Calma -- -- 0 -- -- 98
2020-03-18 04:00:00 4.4 0 Calma 5 Sur 0 -- -- 98
2020-03-18 03:00:00 5.3 0 Calma 8 Sudoeste 0 -- -- 93
2020-03-18 02:00:00 5.4 0 Calma 5 Sur 0 -- -- 97
2020-03-18 01:00:00 6.1 3 Sur 8 Sudoeste 0 -- -- 95
2020-03-18 00:00:00 6.1 4 Sur 8 Sudoeste 0 -- -- 97
2020-03-17 23:00:00 7.5 5 Sudoeste 8 Sur 0 -- -- 88
2020-03-17 22:00:00 6.8 4 Sudoeste 8 Sur 0 -- -- 97
2020-03-17 21:00:00 7.8 4 Sudoeste 8 Oeste 0 -- -- 93
2020-03-17 20:00:00 8 0 Calma 9 Sur 0 -- -- 97
2020-03-17 19:00:00 9.6 4 Sur 8 Sur 0 -- -- 92
2020-03-17 18:00:00 10.6 0 Calma 8 Noroeste 0 -- -- 87
2020-03-17 17:00:00 10.9 5 Noroeste 12 Norte 0 -- -- 86
2020-03-17 16:00:00 9 9 Norte 12 Norte 0.2 -- -- 92
2020-03-17 15:00:00 8.7 0 Calma 4 Oeste 0.4 -- -- 91
2020-03-17 14:00:00 9.1 0 Calma 8 Oeste 1 -- -- 91
2020-03-17 13:00:00 7.7 4 Sudoeste 8 Sur 2.8 -- -- 98
2020-03-17 12:00:00 8.1 6 Sur 11 Sur 0.8 -- -- 95
2020-03-17 11:00:00 8.2 0 Calma 11 Noroeste 1 -- -- 97
2020-03-17 10:00:00 7.5 6 Noroeste 15 Noroeste 1.2 -- -- 94
2020-03-17 09:00:00 7.3 3 Norte 14 Noroeste 0.4 -- -- 98
2020-03-17 08:00:00 7.1 9 Noroeste 16 Noroeste 1.8 -- -- 95
2020-03-17 07:00:00 6.8 11 Norte 18 Norte 1.6 -- -- 98
2020-03-17 06:00:00 6.4 9 Norte 13 Norte 3 -- -- 99
2020-03-17 05:00:00 6.2 3 Norte 14 Noroeste 3.8 -- -- 99
2020-03-17 04:00:00 5.2 4 Noroeste 10 Norte 4.2 -- -- 100
2020-03-17 03:00:00 3.4 0 Calma 7 Noroeste 0.8 -- -- 100
2020-03-17 02:00:00 2.2 0 Calma 9 Este 0.4 -- -- 99
2020-03-17 01:00:00 2.1 0 Calma 14 Sur 0 -- -- 99
2020-03-17 00:00:00 1.8 0 Calma -- -- 0 -- -- 98
2020-03-16 23:00:00 1.5 0 Calma 10 Norte 0 -- -- 99
2020-03-16 22:00:00 1.2 6 Nordeste 15 Norte 0 -- -- 99
2020-03-16 21:00:00 0.8 7 Nordeste 12 Nordeste 0 -- -- 99
2020-03-16 20:00:00 0.6 0 Calma 9 Nordeste 0.6 -- -- 100
2020-03-16 19:00:00 0.3 0 Calma 8 Norte 0.8 -- -- 100
2020-03-16 18:00:00 0.3 0 Calma 15 Norte 1.4 -- -- 99
2020-03-16 17:00:00 0.1 7 Nordeste 9 Nordeste 2.2 -- -- 99
2020-03-16 16:00:00 0.4 0 Calma 16 Norte 2.2 -- -- 99
2020-03-16 15:00:00 0.9 10 Norte 23 Norte 2 -- -- 96
2020-03-16 14:00:00 2.4 17 Norte 24 Norte 0.8 -- -- 94
2020-03-16 13:00:00 1.5 12 Norte 23 Nordeste 1.2 -- -- 99
2020-03-16 12:00:00 2.5 14 Nordeste 22 Norte 2 -- -- 95
2020-03-16 11:00:00 3.9 8 Norte 23 Noroeste 5 -- -- 90
2020-03-16 10:00:00 5.2 12 Oeste 43 Oeste 6 -- -- 92
2020-03-16 09:00:00 6.9 20 Sudoeste 40 Sudoeste 1 -- -- 82
2020-03-16 08:00:00 7.1 17 Sur 28 Sur 0.2 -- -- 95
2020-03-16 07:00:00 6.8 14 Sur 26 Sur 0 -- -- 93
2020-03-16 06:00:00 6.8 16 Sur 25 Sur 0 -- -- 91
2020-03-16 05:00:00 6.1 11 Sur 20 Sur 0.2 -- -- 94
2020-03-16 04:00:00 6.1 12 Sur 25 Sur 0.8 -- -- 95
2020-03-16 03:00:00 6.4 16 Sur 27 Sur 0.8 -- -- 94
2020-03-16 02:00:00 6.6 4 Sudoeste 21 Sur 6 -- -- 98
2020-03-16 01:00:00 7.4 14 Sur 23 Sur 2 -- -- 96
2020-03-16 00:00:00 7.5 0 Calma 31 Sur 1 -- -- 95
2020-03-15 23:00:00 7.8 17 Sudoeste 35 Sur 0 -- -- 91
2020-03-15 22:00:00 7.9 22 Sudoeste 34 Sur 0.2 -- -- 92
2020-03-15 21:00:00 8.1 15 Sur 28 Sudoeste 3.4 -- -- 92
2020-03-15 20:00:00 9.2 22 Sudoeste 34 Sudoeste 3.4 -- -- 84
2020-03-15 19:00:00 12.3 18 Oeste 34 Oeste 0 -- -- 60
2020-03-15 18:00:00 14.2 18 Sudoeste 41 Sudoeste 0 -- -- 60
2020-03-15 17:00:00 16 26 Sudoeste 39 Sudoeste 0 -- -- 49
2020-03-15 16:00:00 16.6 21 Sur 38 Sudoeste 0 -- -- 49
2020-03-15 15:00:00 17.4 22 Sur 35 Sudoeste 0 -- -- 48
2020-03-15 14:00:00 16 23 Sur 39 Sur 0 -- -- 54
2020-03-15 13:00:00 15.9 31 Sur 46 Sur 0 -- -- 55
2020-03-15 12:00:00 15.8 28 Sur 40 Sur 0 -- -- 59
2020-03-15 11:00:00 14.3 18 Sur 27 Sur 0 -- -- 65
2020-03-15 10:00:00 12.5 16 Sur 23 Sudoeste 0 -- -- 71
2020-03-15 09:00:00 9.8 11 Sur 18 Sur 0 -- -- 79
2020-03-15 08:00:00 7.1 9 Sur 17 Sudoeste 0 -- -- 88
2020-03-15 07:00:00 7.5 13 Sur 20 Sudoeste 0 -- -- 87
2020-03-15 06:00:00 6.9 10 Sudoeste 17 Sudoeste 0 -- -- 92
2020-03-15 05:00:00 6.8 13 Sudoeste 17 Sudoeste 0 -- -- 92
2020-03-15 04:00:00 6.9 10 Sudoeste 16 Sur 0 -- -- 88
2020-03-15 03:00:00 5.7 7 Sudoeste 12 Sudoeste 0 -- -- 74
2020-03-15 02:00:00 6.6 0 Calma -- -- 0 -- -- 67
2020-03-15 01:00:00 5.2 0 Calma -- -- 0 -- -- 61
2020-03-15 00:00:00 4.7 0 Calma 4 Oeste 0 -- -- 66
2020-03-14 23:00:00 6.1 5 Oeste 12 Noroeste 0 -- -- 56
2020-03-14 22:00:00 6.9 8 Noroeste 15 Noroeste 0 -- -- 54
2020-03-14 21:00:00 8.5 10 Norte 14 Norte 0 -- -- 50
2020-03-14 20:00:00 10.1 5 Norte 16 Nordeste 0 -- -- 43
2020-03-14 19:00:00 13.4 11 Nordeste 21 Norte 0 -- -- 34
2020-03-14 18:00:00 16 12 Norte 19 Norte 0 -- -- 29
2020-03-14 17:00:00 18.4 12 Norte 22 Nordeste 0 -- -- 30
2020-03-14 16:00:00 18.5 12 Norte 26 Norte 0 -- -- 31
2020-03-14 15:00:00 17.9 15 Norte 27 Norte 0 -- -- 31
2020-03-14 14:00:00 16.8 16 Norte 27 Nordeste 0 -- -- 42
2020-03-14 13:00:00 15.3 16 Norte 23 Norte 0 -- -- 43
2020-03-14 12:00:00 13.7 13 Norte 21 Norte 0 -- -- 63
2020-03-14 11:00:00 11.5 8 Norte 13 Norte 0 -- -- 75
2020-03-14 10:00:00 9.1 2 Nordeste 6 Nordeste 0 -- -- 81
2020-03-14 09:00:00 4.5 0 Calma -- -- 0 -- -- 93
2020-03-14 08:00:00 1.7 0 Calma -- -- 0 -- -- 100
2020-03-14 07:00:00 0.9 0 Calma 7 Norte 0 -- -- 98
2020-03-14 06:00:00 0.9 5 Norte 10 Nordeste 0 -- -- 98
2020-03-14 05:00:00 2.5 0 Calma -- -- 0 -- -- 98
2020-03-14 04:00:00 1.7 0 Calma 8 Norte 0 -- -- 98
2020-03-14 03:00:00 2.3 2 Nordeste 8 Nordeste 0 -- -- 95
2020-03-14 02:00:00 3.4 0 Calma -- -- 0 -- -- 95
2020-03-14 01:00:00 3.5 0 Calma 5 Nordeste 0 -- -- 96
2020-03-14 00:00:00 4.3 0 Calma 6 Nordeste 0 -- -- 95
2020-03-13 23:00:00 5.2 0 Calma 11 Norte 0 -- -- 92
2020-03-13 22:00:00 7.4 9 Norte 21 Norte 0 -- -- 85
2020-03-13 21:00:00 8.7 14 Norte 24 Norte 0 -- -- 80
2020-03-13 20:00:00 10.1 15 Norte 23 Norte 0 -- -- 77
2020-03-13 19:00:00 14.3 9 Sur 18 Sur 0 -- -- 64
2020-03-13 18:00:00 16.1 8 Sudeste 15 Sudeste 0.2 -- -- 60
2020-03-13 17:00:00 15.3 12 Sur 24 Sur 0.6 -- -- 64
2020-03-13 16:00:00 18 14 Sur 31 Sudoeste 0 -- -- 48
2020-03-13 15:00:00 19.3 17 Sur 33 Sur 0 -- -- 48
2020-03-13 14:00:00 17.1 17 Sur 28 Sur 0 -- -- 52
2020-03-13 13:00:00 16.8 13 Sur 26 Sur 0 -- -- 55
2020-03-13 12:00:00 14.7 11 Sur 19 Sur 0 -- -- 62
2020-03-13 11:00:00 12.5 9 Sur 17 Sur 0 -- -- 69
2020-03-13 10:00:00 9.7 8 Nordeste 11 Nordeste 0 -- -- 81
2020-03-13 09:00:00 7.6 2 Sudoeste 5 Sur 0 -- -- 89
2020-03-13 08:00:00 5.5 0 Calma 6 Nordeste 0 -- -- 95
2020-03-13 07:00:00 6.1 4 Este 9 Nordeste 0 -- -- 94
2020-03-13 06:00:00 5.7 5 Nordeste 15 Nordeste 0 -- -- 96
2020-03-13 05:00:00 5.5 8 Norte 14 Nordeste 0 -- -- 99
2020-03-13 04:00:00 6.3 12 Norte 21 Nordeste 0 -- -- 95
2020-03-13 03:00:00 6.8 9 Nordeste 14 Nordeste 0 -- -- 96
2020-03-13 02:00:00 7.8 8 Nordeste 21 Norte 0 -- -- 91
2020-03-13 01:00:00 9.1 13 Norte 18 Norte 0 -- -- 87
2020-03-13 00:00:00 8.8 0 Calma 6 Sur 0 -- -- 78
2020-03-12 23:00:00 10.6 0 Calma 13 Nordeste 0 -- -- 76
2020-03-12 22:00:00 12.8 8 Nordeste 12 Nordeste 0 -- -- 68
2020-03-12 21:00:00 14.6 3 Noroeste 13 Norte 0 -- -- 48
2020-03-12 20:00:00 17.7 5 Noroeste 13 Noroeste 0 -- -- 40
2020-03-12 19:00:00 19 6 Noroeste 20 Sudoeste 0 -- -- 39
2020-03-12 18:00:00 22.2 12 Sudoeste 25 Sur 0 -- -- 33
2020-03-12 17:00:00 23.5 15 Sudoeste 27 Sur 0 -- -- 30
2020-03-12 16:00:00 23.9 18 Sudoeste 35 Sur 0 -- -- 25
2020-03-12 15:00:00 25.7 21 Sur 32 Sur 0 -- -- 24
2020-03-12 14:00:00 25.7 15 Sur 27 Sur 0 -- -- 24
2020-03-12 13:00:00 24.8 12 Sur 20 Sur 0 -- -- 28
2020-03-12 12:00:00 22.2 10 Sur 14 Sur 0 -- -- 29
2020-03-12 11:00:00 18.1 6 Sudoeste 17 Sudoeste 0 -- -- 46
2020-03-12 10:00:00 13.8 12 Sudoeste 18 Sur 0 -- -- 61
2020-03-12 09:00:00 9.3 9 Sur 17 Sudoeste 0 -- -- 71
2020-03-12 08:00:00 7 10 Sudoeste 16 Sur 0 -- -- 75
2020-03-12 07:00:00 4.6 3 Sur 14 Sur 0 -- -- 83
2020-03-12 06:00:00 6.1 3 Sur 14 Sudoeste 0 -- -- 77
2020-03-12 05:00:00 6.6 5 Sur 12 Sur 0 -- -- 77
2020-03-12 04:00:00 7.2 0 Calma -- -- 0 -- -- 75
2020-03-12 03:00:00 7.1 0 Calma 9 Sur 0 -- -- 76
2020-03-12 02:00:00 7.9 4 Sur 9 Sur 0 -- -- 74
2020-03-12 01:00:00 10 4 Sudoeste 12 Sudoeste 0 -- -- 66
2020-03-12 00:00:00 10.6 0 Calma -- -- 0 -- -- 65
2020-03-11 23:00:00 10.7 0 Calma -- -- 0 -- -- 64
2020-03-11 22:00:00 12.7 0 Calma 13 Noroeste 0 -- -- 57
2020-03-11 21:00:00 13.8 7 Noroeste 13 Noroeste 0 -- -- 55
2020-03-11 20:00:00 16.4 5 Nordeste 15 Noroeste 0 -- -- 45
2020-03-11 19:00:00 17.9 12 Norte 18 Norte 0 -- -- 44
2020-03-11 18:00:00 22.4 13 Norte 26 Norte 0 -- -- 31
2020-03-11 17:00:00 24 18 Norte 33 Norte 0 -- -- 28
2020-03-11 16:00:00 24.6 10 Nordeste 18 Norte 0 -- -- 31
2020-03-11 15:00:00 23.5 5 Nordeste 15 Nordeste 0 -- -- 34
2020-03-11 14:00:00 21.9 4 Sudeste 13 Norte 0 -- -- 36
2020-03-11 13:00:00 20.8 3 Norte 10 Norte 0 -- -- 38
2020-03-11 12:00:00 19 5 Este 12 Nordeste 0 -- -- 41
2020-03-11 11:00:00 16.6 3 Sudeste 9 Sur 0 -- -- 48
2020-03-11 10:00:00 11.8 6 Sur 10 Sur 0 -- -- 67
2020-03-11 09:00:00 6.7 4 Sur 7 Sur 0 -- -- 81
2020-03-11 08:00:00 1.8 0 Calma 0 Calma 0 -- -- 93
2020-03-11 07:00:00 1.7 0 Calma -- -- 0 -- -- 88
2020-03-11 06:00:00 1.8 0 Calma -- -- 0 -- -- 90
2020-03-11 05:00:00 3.2 0 Calma 7 Sur 0 -- -- 87
2020-03-11 04:00:00 3.4 0 Calma -- -- 0 -- -- 87
2020-03-11 03:00:00 6 0 Calma 14 Sur 0 -- -- 80
2020-03-11 02:00:00 7.3 8 Sur 19 Norte 0 -- -- 74
2020-03-11 01:00:00 9.6 14 Norte 18 Norte 0 -- -- 67
2020-03-11 00:00:00 8.4 8 Norte 13 Norte 0 -- -- 70
2020-03-10 23:00:00 8.9 9 Norte 13 Norte 0 -- -- 69
2020-03-10 22:00:00 10.7 11 Norte 13 Norte 0 -- -- 62
2020-03-10 21:00:00 9.7 0 Calma 9 Noroeste 0 -- -- 67
2020-03-10 20:00:00 12.7 7 Noroeste 12 Noroeste 0 -- -- 55
2020-03-10 19:00:00 14.9 5 Norte 10 Nordeste 0 -- -- 54
2020-03-10 18:00:00 18.8 6 Norte 17 Nordeste 0 -- -- 43
2020-03-10 17:00:00 19.9 9 Nordeste 21 Nordeste 0 -- -- 38
2020-03-10 16:00:00 20.6 10 Nordeste 21 Norte 0 -- -- 37
2020-03-10 15:00:00 20.6 8 Nordeste 21 Nordeste 0 -- -- 35
2020-03-10 14:00:00 19.3 13 Norte 27 Norte 0 -- -- 35
2020-03-10 13:00:00 17.2 3 Norte 11 Norte 0 -- -- 41
2020-03-10 12:00:00 13.7 4 Este 9 Sudoeste 0 -- -- 50
2020-03-10 11:00:00 10.6 3 Sur 7 Sur 0 -- -- 53
2020-03-10 10:00:00 8.5 0 Calma 6 Sudoeste 0 -- -- 59
2020-03-10 09:00:00 4.1 0 Calma 6 Sur 0 -- -- 77
2020-03-10 08:00:00 0.2 0 Calma -- -- 0 -- -- 86
2020-03-10 07:00:00 -0.1 0 Calma -- -- 0 -- -- 86
2020-03-10 06:00:00 0.6 0 Calma 6 Norte 0 -- -- 83
2020-03-10 05:00:00 1 0 Calma 13 Norte 0 -- -- 81
2020-03-10 04:00:00 3 12 Norte 20 Norte 0 -- -- 73
2020-03-10 03:00:00 2.1 12 Norte 17 Norte 0 -- -- 78
2020-03-10 02:00:00 2.2 14 Norte 22 Norte 0 -- -- 85
2020-03-10 01:00:00 2.5 16 Norte 26 Norte 0 -- -- 86
2020-03-10 00:00:00 1.9 13 Norte 17 Norte 0 -- -- 86
2020-03-09 23:00:00 3 11 Norte 24 Nordeste 0 -- -- 83
2020-03-09 22:00:00 4.4 23 Norte 32 Norte 0 -- -- 81
2020-03-09 21:00:00 5.3 21 Norte 31 Norte 0 -- -- 77
2020-03-09 20:00:00 6.4 18 Norte 33 Norte 0 -- -- 72
2020-03-09 19:00:00 8.1 17 Norte 30 Nordeste 0 -- -- 59
2020-03-09 18:00:00 10.9 25 Norte 41 Norte 0 -- -- 46
2020-03-09 17:00:00 12.6 28 Norte 46 Norte 0 -- -- 41
2020-03-09 16:00:00 12.1 28 Norte 48 Norte 0 -- -- 44
2020-03-09 15:00:00 12.4 32 Norte 47 Norte 0 -- -- 42
2020-03-09 14:00:00 11.9 28 Norte 47 Norte 0 -- -- 44
2020-03-09 13:00:00 11.1 33 Norte 48 Norte 0 -- -- 46
2020-03-09 12:00:00 9.5 28 Norte 45 Norte 0 -- -- 57
2020-03-09 11:00:00 8.3 33 Norte 50 Norte 0 -- -- 59
2020-03-09 10:00:00 7.1 23 Norte 34 Norte 0 -- -- 74
2020-03-09 09:00:00 6.1 24 Norte 41 Norte 0 -- -- 77
2020-03-09 08:00:00 5.6 17 Norte 32 Noroeste 0 -- -- 76
2020-03-09 07:00:00 5.7 21 Norte 32 Noroeste 0 -- -- 74
2020-03-09 06:00:00 5.1 8 Norte 30 Noroeste 0 -- -- 79
2020-03-09 05:00:00 5.2 3 Noroeste 16 Norte 0 -- -- 81
2020-03-09 04:00:00 5.5 10 Norte 17 Norte 0 -- -- 80
2020-03-09 03:00:00 5.3 0 Calma 9 Nordeste 0 -- -- 77
2020-03-09 02:00:00 4.2 6 Nordeste 20 Noroeste 0 -- -- 78
2020-03-09 01:00:00 5.9 12 Norte 21 Norte 0 -- -- 73
2020-03-09 00:00:00 6.3 15 Norte 23 Norte 0 -- -- 65